createdAt,value
2022-08-05T00:01:20.873Z,25.60
2022-08-05T00:04:00.188Z,25.62
2022-08-05T00:06:33.209Z,25.69
2022-08-05T00:09:20.256Z,25.76
2022-08-05T00:12:06.991Z,25.76
2022-08-05T00:14:51.718Z,25.76
2022-08-05T00:17:37.953Z,25.75
2022-08-05T00:20:29.101Z,25.75
2022-08-05T00:23:12.481Z,25.77
2022-08-05T00:25:46.139Z,25.83
2022-08-05T00:28:32.922Z,25.85
2022-08-05T00:31:12.914Z,25.92
2022-08-05T00:34:54.891Z,25.98
2022-08-05T00:37:09.800Z,26.01
2022-08-05T00:39:22.374Z,26.02
2022-08-05T00:41:55.521Z,26.02
2022-08-05T00:44:41.513Z,25.96
2022-08-05T00:47:08.860Z,25.91
2022-08-05T00:49:49.351Z,25.87
2022-08-05T00:52:28.534Z,25.83
2022-08-05T00:54:57.628Z,25.80
2022-08-05T00:57:38.222Z,25.77
2022-08-05T01:00:14.153Z,25.72
2022-08-05T01:02:44.403Z,25.69
2022-08-05T01:05:12.786Z,25.69
2022-08-05T01:08:40.576Z,25.71
2022-08-05T01:10:40.640Z,25.71
2022-08-05T01:13:58.788Z,25.66
2022-08-05T01:16:27.169Z,25.58
2022-08-05T01:19:03.878Z,25.55
2022-08-05T01:22:06.968Z,25.48
2022-08-05T01:25:01.696Z,25.51
2022-08-05T01:28:15.552Z,25.46
2022-08-05T01:30:53.765Z,25.47
2022-08-05T01:33:29.555Z,25.41
2022-08-05T01:36:16.293Z,25.33
2022-08-05T01:38:48.607Z,25.29
2022-08-05T01:41:22.514Z,25.28
2022-08-05T01:43:56.367Z,25.32
2022-08-05T01:46:42.668Z,25.31
2022-08-05T01:49:23.594Z,25.23
2022-08-05T01:51:58.747Z,25.24
2022-08-05T01:54:46.143Z,25.24
2022-08-05T01:58:10.131Z,25.26
2022-08-05T02:00:12.417Z,25.21
2022-08-05T02:02:53.577Z,25.20
2022-08-05T02:05:28.672Z,25.21
2022-08-05T02:08:01.352Z,25.18
2022-08-05T02:10:36.988Z,25.08
2022-08-05T02:13:17.533Z,24.94
2022-08-05T02:15:53.977Z,24.85
2022-08-05T02:18:34.842Z,24.77
2022-08-05T02:21:14.735Z,24.69
2022-08-05T02:23:48.523Z,24.64
2022-08-05T02:26:26.645Z,24.59
2022-08-05T02:28:56.486Z,24.57
2022-08-05T02:31:34.965Z,24.49
2022-08-05T02:34:09.342Z,24.47
2022-08-05T02:36:42.680Z,24.44
2022-08-05T02:39:12.976Z,24.44
2022-08-05T02:42:01.347Z,24.43
2022-08-05T02:44:32.462Z,24.40
2022-08-05T02:47:02.806Z,24.37
2022-08-05T02:49:40.325Z,24.36
2022-08-05T02:52:25.871Z,24.33
2022-08-05T02:55:01.876Z,24.31
2022-08-05T02:58:09.235Z,24.28
2022-08-05T03:00:21.677Z,24.23
2022-08-05T03:02:52.977Z,24.22
2022-08-05T03:05:21.872Z,24.20
2022-08-05T03:08:11.402Z,24.17
2022-08-05T03:10:42.112Z,24.18
2022-08-05T03:13:28.527Z,24.19
2022-08-05T03:16:16.227Z,24.19
2022-08-05T03:18:48.720Z,24.21
2022-08-05T03:21:16.242Z,24.20
2022-08-05T03:23:45.624Z,24.19
2022-08-05T03:26:31.367Z,24.19
2022-08-05T03:28:59.842Z,24.18
2022-08-05T03:31:55.608Z,24.19
2022-08-05T03:34:16.971Z,24.24
2022-08-05T03:36:44.347Z,24.28
2022-08-05T03:39:13.159Z,24.32
2022-08-05T03:41:47.747Z,24.31
2022-08-05T03:44:20.215Z,24.29
2022-08-05T03:46:47.839Z,24.30
2022-08-05T03:49:17.582Z,24.29
2022-08-05T03:52:38.331Z,24.28
2022-08-05T03:55:00.074Z,24.25
2022-08-05T03:57:44.670Z,24.27
2022-08-05T04:00:16.271Z,24.27
2022-08-05T04:02:57.660Z,24.25
2022-08-05T04:05:33.696Z,24.22
2022-08-05T04:08:05.872Z,24.20
2022-08-05T04:10:45.092Z,24.18
2022-08-05T04:13:13.031Z,24.19
2022-08-05T04:16:02.830Z,24.19
2022-08-05T04:18:28.864Z,24.19
2022-08-05T04:20:59.149Z,24.20
2022-08-05T04:24:05.104Z,24.20
2022-08-05T04:26:17.460Z,24.25
2022-08-05T04:28:50.817Z,24.33
2022-08-05T04:31:19.387Z,24.36
2022-08-05T04:34:18.549Z,24.38
2022-08-05T04:36:44.763Z,24.35
2022-08-05T04:39:17.483Z,24.36
2022-08-05T04:41:45.948Z,24.44
2022-08-05T04:44:20.993Z,24.51
2022-08-05T04:46:51.901Z,24.56
2022-08-05T04:49:24.754Z,24.58
2022-08-05T04:52:07.747Z,24.59
2022-08-05T04:54:35.195Z,24.62
2022-08-05T04:57:02.518Z,24.62
2022-08-05T04:59:38.934Z,24.63
2022-08-05T05:02:36.305Z,24.65
2022-08-05T05:05:01.837Z,24.65
2022-08-05T05:07:32.691Z,24.69
2022-08-05T05:10:06.460Z,24.72
2022-08-05T05:12:34.144Z,24.72
2022-08-05T05:15:10.781Z,24.69
2022-08-05T05:17:57.083Z,24.67
2022-08-05T05:20:28.747Z,24.65
2022-08-05T05:22:58.414Z,24.62
2022-08-05T05:25:40.432Z,24.65
2022-08-05T05:28:09.294Z,24.63
2022-08-05T05:30:36.996Z,24.65
2022-08-05T05:33:16.240Z,24.67
2022-08-05T05:35:45.857Z,24.73
2022-08-05T05:38:22.649Z,24.82
2022-08-05T05:40:55.844Z,24.94
2022-08-05T05:43:54.546Z,25.06
2022-08-05T05:46:15.776Z,25.20
2022-08-05T05:48:47.888Z,25.33
2022-08-05T05:51:21.197Z,25.34
2022-08-05T05:53:58.306Z,25.32
2022-08-05T05:56:32.307Z,25.29
2022-08-05T05:59:03.452Z,25.22
2022-08-05T06:01:37.382Z,25.20
2022-08-05T06:04:07.569Z,25.24
2022-08-05T06:06:35.543Z,25.29
2022-08-05T06:09:05.747Z,25.28
2022-08-05T06:11:35.342Z,25.27
2022-08-05T06:14:06.950Z,25.27
2022-08-05T06:16:37.202Z,25.23
2022-08-05T06:19:07.566Z,25.20
2022-08-05T06:21:38.709Z,25.18
2022-08-05T06:24:11.959Z,25.16
2022-08-05T06:26:51.478Z,25.15
2022-08-05T06:29:25.286Z,25.19
2022-08-05T06:32:21.220Z,25.21
2022-08-05T06:34:56.059Z,25.28
2022-08-05T06:37:52.276Z,25.31
2022-08-05T06:40:18.570Z,25.27
2022-08-05T06:42:51.991Z,25.24
2022-08-05T06:45:44.579Z,25.22
2022-08-05T06:48:36.207Z,25.21
2022-08-05T06:50:57.252Z,25.25
2022-08-05T06:53:28.230Z,25.28
2022-08-05T06:55:58.300Z,25.31
2022-08-05T06:58:35.023Z,25.33
2022-08-05T07:01:06.403Z,25.38
2022-08-05T07:03:34.915Z,25.40
2022-08-05T07:06:05.615Z,25.37
2022-08-05T07:08:42.708Z,25.38
2022-08-05T07:11:15.457Z,25.37
2022-08-05T07:14:01.619Z,25.32
2022-08-05T07:18:02.350Z,25.29
2022-08-05T07:22:28.504Z,25.19
2022-08-05T07:24:59.309Z,25.18
2022-08-05T07:27:58.852Z,25.17
2022-08-05T07:30:23.947Z,25.20
2022-08-05T07:32:55.655Z,25.21
2022-08-05T07:36:03.520Z,25.21
2022-08-05T07:38:32.803Z,25.22
2022-08-05T07:41:16.849Z,25.22
2022-08-05T07:43:50.554Z,25.19
2022-08-05T07:46:24.446Z,25.17
2022-08-05T07:49:01.973Z,25.14
2022-08-05T07:51:37.609Z,25.16
2022-08-05T07:54:10.549Z,25.18
2022-08-05T07:57:02.477Z,25.17
2022-08-05T07:59:38.271Z,25.16
2022-08-05T08:02:10.586Z,25.17
2022-08-05T08:04:47.407Z,25.22
2022-08-05T08:07:15.396Z,25.26
2022-08-05T08:09:43.624Z,25.26
2022-08-05T08:12:37.547Z,25.27
2022-08-05T08:15:13.823Z,25.23
2022-08-05T08:17:46.256Z,25.22
2022-08-05T08:20:43.383Z,25.21
2022-08-05T08:23:07.509Z,25.16
2022-08-05T08:25:59.898Z,25.12
2022-08-05T08:28:37.139Z,25.12
2022-08-05T08:31:17.333Z,25.13
2022-08-05T08:33:45.935Z,25.15
2022-08-05T08:36:38.939Z,25.14
2022-08-05T08:39:15.231Z,25.13
2022-08-05T08:41:52.563Z,25.10
2022-08-05T08:45:18.521Z,25.08
2022-08-05T08:48:06.356Z,25.09
2022-08-05T08:50:31.826Z,25.12
2022-08-05T08:53:12.455Z,25.19
2022-08-05T08:56:04.861Z,25.22
2022-08-05T08:58:43.523Z,25.22
2022-08-05T09:01:19.142Z,25.22
2022-08-05T09:03:54.386Z,25.20
2022-08-05T09:06:32.593Z,25.13
2022-08-05T09:09:04.684Z,25.08
2022-08-05T09:11:53.194Z,25.03
2022-08-05T09:14:56.816Z,24.97
2022-08-05T09:17:40.671Z,24.95
2022-08-05T09:20:08.353Z,25.04
2022-08-05T09:23:09.127Z,25.07
2022-08-05T09:26:01.504Z,25.15
2022-08-05T09:28:32.234Z,25.13
2022-08-05T09:31:23.483Z,25.16
2022-08-05T09:33:54.690Z,25.18
2022-08-05T09:36:55.106Z,25.20
2022-08-05T09:39:39.290Z,25.26
2022-08-05T09:42:23.517Z,25.26
2022-08-05T09:44:57.498Z,25.20
2022-08-05T09:47:49.115Z,25.20
2022-08-05T09:50:43.684Z,25.25
2022-08-05T09:53:12.065Z,25.30
2022-08-05T09:56:03.703Z,25.30
2022-08-05T09:58:36.935Z,25.32
2022-08-05T10:01:15.733Z,25.29
2022-08-05T10:04:03.559Z,25.30
2022-08-05T10:06:32.092Z,25.34
2022-08-05T10:09:25.101Z,25.35
2022-08-05T10:12:30.088Z,25.39
2022-08-05T10:15:17.212Z,25.33
2022-08-05T10:18:03.621Z,25.23
2022-08-05T10:20:33.089Z,25.20
2022-08-05T10:23:02.226Z,25.19
2022-08-05T10:25:32.699Z,25.16
2022-08-05T10:28:13.911Z,25.12
2022-08-05T10:32:54.908Z,25.13
2022-08-05T10:33:36.076Z,25.12
2022-08-05T10:36:05.876Z,25.14
2022-08-05T10:38:37.225Z,25.18
2022-08-05T10:41:23.275Z,25.15
2022-08-05T10:44:02.128Z,25.12
2022-08-05T10:46:50.563Z,25.13
2022-08-05T10:49:26.922Z,25.20
2022-08-05T10:52:03.315Z,25.29
2022-08-05T10:55:03.271Z,25.28
2022-08-05T10:57:34.125Z,25.36
2022-08-05T11:00:19.839Z,25.35
2022-08-05T11:03:24.981Z,25.35
2022-08-05T11:06:21.245Z,25.38
2022-08-05T11:09:24.408Z,25.44
2022-08-05T11:12:54.506Z,25.40
2022-08-05T11:15:59.465Z,25.50
2022-08-05T11:18:29.981Z,25.57
2022-08-05T11:20:59.630Z,25.67
2022-08-05T11:24:05.161Z,25.75
2022-08-05T11:26:33.284Z,25.87
2022-08-05T11:29:11.692Z,26.04
2022-08-05T11:31:54.138Z,26.19
2022-08-05T11:34:50.858Z,26.20
2022-08-05T11:38:29.525Z,26.19
2022-08-05T11:41:01.798Z,26.31
2022-08-05T11:44:04.575Z,26.46
2022-08-05T11:46:58.126Z,26.58
2022-08-05T11:49:39.385Z,26.71
2022-08-05T11:52:11.868Z,26.79
2022-08-05T11:54:41.804Z,26.88
2022-08-05T11:57:24.807Z,26.89
2022-08-05T11:59:54.198Z,26.89
2022-08-05T12:02:33.470Z,26.90
2022-08-05T12:05:07.101Z,26.96
2022-08-05T12:08:07.567Z,27.06
2022-08-05T12:10:43.037Z,27.06
2022-08-05T12:13:28.103Z,27.09
2022-08-05T12:16:14.879Z,27.29
2022-08-05T12:18:49.523Z,27.46
2022-08-05T12:21:24.305Z,27.58
2022-08-05T12:24:11.304Z,27.53
2022-08-05T12:26:43.979Z,27.68
2022-08-05T12:29:16.105Z,27.77
2022-08-05T12:31:53.821Z,27.83
2022-08-05T12:34:31.572Z,27.93
2022-08-05T12:37:10.485Z,28.58
2022-08-05T12:39:39.726Z,29.57
2022-08-05T12:42:16.680Z,29.79
2022-08-05T12:44:47.614Z,29.81
2022-08-05T12:47:27.257Z,29.65
2022-08-05T12:50:03.200Z,29.54
2022-08-05T12:52:39.396Z,29.54
2022-08-05T12:55:22.637Z,29.48
2022-08-05T12:58:50.751Z,29.37
2022-08-05T13:02:00.689Z,29.15
2022-08-05T13:03:33.155Z,28.98
2022-08-05T13:06:02.233Z,28.96
2022-08-05T13:08:32.439Z,28.97
2022-08-05T13:11:01.655Z,28.98
2022-08-05T13:14:05.756Z,29.01
2022-08-05T13:16:19.542Z,28.91
2022-08-05T13:18:58.390Z,28.85
2022-08-05T13:21:38.053Z,28.77
2022-08-05T13:24:27.699Z,28.71
2022-08-05T13:27:04.985Z,28.64
2022-08-05T13:29:38.388Z,28.47
2022-08-05T13:32:39.173Z,28.41
2022-08-05T13:35:10.227Z,28.53
2022-08-05T13:37:37.607Z,28.59
2022-08-05T13:40:16.210Z,28.59
2022-08-05T13:42:55.645Z,28.67
2022-08-05T13:45:23.136Z,28.59
2022-08-05T13:48:09.818Z,28.49
2022-08-05T13:50:47.773Z,28.52
2022-08-05T13:53:15.945Z,28.54
2022-08-05T13:55:50.259Z,28.49
2022-08-05T13:58:31.027Z,28.23
2022-08-05T14:00:59.677Z,28.09
2022-08-05T14:03:28.925Z,27.99
2022-08-05T14:06:25.949Z,28.00
2022-08-05T14:08:43.828Z,28.16
2022-08-05T14:11:21.038Z,28.40
2022-08-05T14:13:49.679Z,28.48
2022-08-05T14:16:22.813Z,28.49
2022-08-05T14:18:52.522Z,28.49
2022-08-05T14:22:08.114Z,28.46
2022-08-05T14:24:12.214Z,28.43
2022-08-05T14:26:51.479Z,28.33
2022-08-05T14:29:27.505Z,28.28
2022-08-05T14:32:12.374Z,28.27
2022-08-05T14:34:45.159Z,28.26
2022-08-05T14:37:14.104Z,28.24
2022-08-05T14:39:49.961Z,28.24
2022-08-05T14:42:25.000Z,28.40
2022-08-05T14:44:52.866Z,28.60
2022-08-05T14:48:02.442Z,28.68
2022-08-05T14:50:18.204Z,28.63
2022-08-05T14:52:53.467Z,28.56
2022-08-05T14:55:25.100Z,28.51
2022-08-05T14:57:54.552Z,28.48
2022-08-05T15:00:27.746Z,28.48
2022-08-05T15:02:56.307Z,28.44
2022-08-05T15:05:29.828Z,28.39
2022-08-05T15:08:18.054Z,28.31
2022-08-05T15:11:03.225Z,28.24
2022-08-05T15:13:45.862Z,28.21
2022-08-05T15:16:14.289Z,28.19
2022-08-05T15:18:41.940Z,28.18
2022-08-05T15:21:15.986Z,28.11
2022-08-05T15:23:49.052Z,28.06
2022-08-05T15:26:17.594Z,28.07
2022-08-05T15:28:59.885Z,28.04
2022-08-05T15:31:34.745Z,28.02
2022-08-05T15:34:19.025Z,27.98
2022-08-05T15:36:51.240Z,27.92
2022-08-05T15:40:59.541Z,27.88
2022-08-05T15:42:54.804Z,27.80
2022-08-05T15:44:55.015Z,27.80
2022-08-05T15:47:23.578Z,27.80
2022-08-05T15:49:56.950Z,27.83
2022-08-05T15:52:51.894Z,27.87
2022-08-05T15:55:16.570Z,27.91
2022-08-05T15:57:44.952Z,27.91
2022-08-05T16:00:16.688Z,27.87
2022-08-05T16:02:44.495Z,27.81
2022-08-05T16:05:12.144Z,27.81
2022-08-05T16:07:46.563Z,27.84
2022-08-05T16:10:16.495Z,27.90
2022-08-05T16:12:51.473Z,27.92
2022-08-05T16:15:21.689Z,27.89
2022-08-05T16:17:57.969Z,27.84
2022-08-05T16:20:25.639Z,27.80
2022-08-05T16:22:57.457Z,27.79
2022-08-05T16:25:32.167Z,27.78
2022-08-05T16:28:05.843Z,27.89
2022-08-05T16:30:36.131Z,28.07
2022-08-05T16:33:04.205Z,28.30
2022-08-05T16:35:33.535Z,28.47
2022-08-05T16:38:23.810Z,28.64
2022-08-05T16:40:51.668Z,28.59
2022-08-05T16:43:24.145Z,28.53
2022-08-05T16:46:07.178Z,28.48
2022-08-05T16:48:40.605Z,28.43
2022-08-05T16:51:10.215Z,28.40
2022-08-05T16:54:04.853Z,28.35
2022-08-05T16:56:29.744Z,28.39
2022-08-05T16:58:57.791Z,28.40
2022-08-05T17:01:25.422Z,28.40
2022-08-05T17:03:52.931Z,28.41
2022-08-05T17:06:20.869Z,28.44
2022-08-05T17:08:54.593Z,28.42
2022-08-05T17:11:23.765Z,28.38
2022-08-05T17:14:00.398Z,28.38
2022-08-05T17:16:35.971Z,28.39
2022-08-05T17:19:07.785Z,28.40
2022-08-05T17:21:39.694Z,28.36
2022-08-05T17:24:28.461Z,28.29
2022-08-05T17:26:58.530Z,28.22
2022-08-05T17:29:33.410Z,28.13
2022-08-05T17:32:08.449Z,28.03
2022-08-05T17:34:39.526Z,27.85
2022-08-05T17:37:16.903Z,27.67
2022-08-05T17:39:56.321Z,27.43
2022-08-05T17:42:31.897Z,27.26
2022-08-05T17:45:09.967Z,27.11
2022-08-05T17:47:53.439Z,26.99
2022-08-05T17:50:28.406Z,26.89
2022-08-05T17:52:59.515Z,26.82
2022-08-05T17:55:37.272Z,26.79
2022-08-05T17:58:09.907Z,26.77
2022-08-05T18:00:40.797Z,26.72
2022-08-05T18:03:28.081Z,26.65
2022-08-05T18:06:04.525Z,26.57
2022-08-05T18:08:33.328Z,26.54
2022-08-05T18:11:03.258Z,26.48
2022-08-05T18:13:36.937Z,26.38
2022-08-05T18:16:13.690Z,26.29
2022-08-05T18:18:41.678Z,26.15
2022-08-05T18:21:20.067Z,26.04
2022-08-05T18:23:50.155Z,25.96
2022-08-05T18:26:28.991Z,25.91
2022-08-05T18:28:57.945Z,25.85
2022-08-05T18:31:33.048Z,25.81
2022-08-05T18:34:06.138Z,25.77
2022-08-05T18:36:35.387Z,25.76
2022-08-05T18:39:04.020Z,25.71
2022-08-05T18:41:53.343Z,25.64
2022-08-05T18:44:35.032Z,25.55
2022-08-05T18:47:14.832Z,25.48
2022-08-05T18:50:00.531Z,25.41
2022-08-05T18:52:36.851Z,25.34
2022-08-05T18:55:10.611Z,25.26
2022-08-05T18:57:43.083Z,25.19
2022-08-05T19:00:20.626Z,25.13
2022-08-05T19:02:48.424Z,25.07
2022-08-05T19:06:12.179Z,25.02
2022-08-05T19:08:07.687Z,24.97
2022-08-05T19:10:41.049Z,24.92
2022-08-05T19:13:12.255Z,24.90
2022-08-05T19:15:58.350Z,24.84
2022-08-05T19:18:28.703Z,24.79
2022-08-05T19:20:56.640Z,24.78
2022-08-05T19:24:07.034Z,24.74
2022-08-05T19:26:11.904Z,24.67
2022-08-05T19:28:44.504Z,24.60
2022-08-05T19:31:13.767Z,24.52
2022-08-05T19:33:48.313Z,24.46
2022-08-05T19:36:25.158Z,24.39
2022-08-05T19:38:55.120Z,24.33
2022-08-05T19:41:58.504Z,24.28
2022-08-05T19:44:18.348Z,24.22
2022-08-05T19:46:46.443Z,24.21
2022-08-05T19:49:17.028Z,24.15
2022-08-05T19:52:08.710Z,24.12
2022-08-05T19:54:34.254Z,24.04
2022-08-05T19:57:08.441Z,24.01
2022-08-05T20:00:00.489Z,23.95
2022-08-05T20:02:31.446Z,23.92
2022-08-05T20:04:59.814Z,23.90
2022-08-05T20:07:47.528Z,23.89
2022-08-05T20:10:15.768Z,23.83
2022-08-05T20:12:47.910Z,23.82
2022-08-05T20:15:48.252Z,23.78
2022-08-05T20:18:10.709Z,23.74
2022-08-05T20:20:56.628Z,23.71
2022-08-05T20:23:38.768Z,23.69
2022-08-05T20:26:16.402Z,23.67
2022-08-05T20:28:46.057Z,23.65
2022-08-05T20:31:16.617Z,23.62
2022-08-05T20:33:44.986Z,23.59
2022-08-05T20:36:14.171Z,23.56
2022-08-05T20:38:53.628Z,23.52
2022-08-05T20:41:24.127Z,23.48
2022-08-05T20:43:59.824Z,23.48
2022-08-05T20:46:31.810Z,23.48
2022-08-05T20:48:59.222Z,23.48
2022-08-05T20:51:26.855Z,23.50
2022-08-05T20:53:56.760Z,23.50
2022-08-05T20:56:29.956Z,23.47
2022-08-05T20:59:11.275Z,23.45
2022-08-05T21:01:44.853Z,23.41
2022-08-05T21:04:12.553Z,23.40
2022-08-05T21:06:45.024Z,23.37
2022-08-05T21:09:14.285Z,23.32
2022-08-05T21:12:06.952Z,23.28
2022-08-05T21:14:34.785Z,23.23
2022-08-05T21:17:05.267Z,23.24
2022-08-05T21:19:47.122Z,23.24
2022-08-05T21:22:17.763Z,23.20
2022-08-05T21:24:51.965Z,23.16
2022-08-05T21:27:24.634Z,23.14
2022-08-05T21:29:52.288Z,23.11
2022-08-05T21:32:24.542Z,23.11
2022-08-05T21:35:08.906Z,23.11
2022-08-05T21:37:47.245Z,23.10
2022-08-05T21:40:21.848Z,23.11
2022-08-05T21:42:51.946Z,23.12
2022-08-05T21:45:24.989Z,23.13
2022-08-05T21:48:09.329Z,23.12
2022-08-05T21:50:37.328Z,23.07
2022-08-05T21:53:16.466Z,23.01
2022-08-05T21:56:06.211Z,22.95
2022-08-05T21:58:33.071Z,22.89
2022-08-05T22:01:00.739Z,22.85
2022-08-05T22:03:52.630Z,22.82
2022-08-05T22:06:22.769Z,22.76
2022-08-05T22:08:52.151Z,22.73
2022-08-05T22:11:35.054Z,22.70
2022-08-05T22:14:18.238Z,22.68
2022-08-05T22:16:53.036Z,22.62
2022-08-05T22:20:01.661Z,22.59
2022-08-05T22:22:13.070Z,22.55
2022-08-05T22:25:00.613Z,22.57
2022-08-05T22:28:08.359Z,22.54
2022-08-05T22:30:35.186Z,22.53
2022-08-05T22:33:03.925Z,22.52
2022-08-05T22:35:49.139Z,22.51
2022-08-05T22:38:17.011Z,22.48
2022-08-05T22:40:49.604Z,22.47
2022-08-05T22:43:37.451Z,22.43
2022-08-05T22:46:13.110Z,22.38
2022-08-05T22:48:42.077Z,22.34
2022-08-05T22:51:16.116Z,22.28
2022-08-05T22:53:50.455Z,22.20
2022-08-05T22:56:30.010Z,22.16
2022-08-05T22:59:00.093Z,22.11
2022-08-05T23:02:04.756Z,22.05
2022-08-05T23:04:18.755Z,22.01
2022-08-05T23:06:48.112Z,22.00
2022-08-05T23:09:27.652Z,21.97
2022-08-05T23:12:03.639Z,21.95
2022-08-05T23:14:32.283Z,21.94
2022-08-05T23:17:24.485Z,21.95
2022-08-05T23:20:02.605Z,21.98
2022-08-05T23:22:31.412Z,22.02
2022-08-05T23:25:00.500Z,22.05
2022-08-05T23:27:28.824Z,22.11
2022-08-05T23:30:11.109Z,22.13
2022-08-05T23:32:45.132Z,22.12
2022-08-05T23:35:12.930Z,22.08
2022-08-05T23:37:41.958Z,22.03
2022-08-05T23:40:11.722Z,21.98
2022-08-05T23:42:39.162Z,21.93
2022-08-05T23:45:15.879Z,21.90
2022-08-05T23:47:47.954Z,21.85
2022-08-05T23:50:17.072Z,21.82
2022-08-05T23:52:51.564Z,21.78
2022-08-05T23:55:21.371Z,21.75
2022-08-05T23:57:52.753Z,21.71
